Boystown, Nebraska
Current Conditions -  °F | °C
As of 7:35 PM on Tuesday 25 Nov 2014 (Local Time) from KMLE Reporting Station
Overcast Overcast  
Wind Chill: 34°   Ceiling: 5500
Heat Index: 40°   Visibility: 10mi
Dew Point: 27°   Wind: 10mph
Humidity: 59%   Direction: 130°SE
Pressure: 29.91"   Gusts: NA
Location:  41.259°N, 96.1267°W
Report Text: KMLE 260135Z AUTO 13009KT 10SM BKN055 OVC075 05/M03 A2991 RMK AO2 T00451028
Loading
Personal Weather Stations






























Interactive Weather Map New forecast layout! Learn more

10-Day Weather Forecast

Advertisements
Track Severe Weather on mobile